sensor_id;sensor_type;location;lat;lon;timestamp;pressure;altitude;pressure_sealevel;temperature;humidity
54666;BME280;40566;50.006;36.180;2023-02-18T00:00:27;99963.69;;;-3.84;57.13
54666;BME280;40566;50.006;36.180;2023-02-18T00:05:28;99949.09;;;-3.91;57.14
54666;BME280;40566;50.006;36.180;2023-02-18T00:10:28;99956.59;;;-3.94;57.22
54666;BME280;40566;50.006;36.180;2023-02-18T00:15:29;99950.13;;;-3.86;57.16
54666;BME280;40566;50.006;36.180;2023-02-18T00:20:30;99935.16;;;-3.80;57.23
54666;BME280;40566;50.006;36.180;2023-02-18T00:25:32;99917.47;;;-3.80;56.96
54666;BME280;40566;50.006;36.180;2023-02-18T00:30:33;99903.88;;;-3.84;57.11
54666;BME280;40566;50.006;36.180;2023-02-18T00:35:33;99893.72;;;-3.85;57.09
54666;BME280;40566;50.006;36.180;2023-02-18T00:40:38;99874.31;;;-3.86;57.25
54666;BME280;40566;50.006;36.180;2023-02-18T00:45:39;99868.22;;;-3.93;57.30
54666;BME280;40566;50.006;36.180;2023-02-18T00:50:39;99869.97;;;-3.90;57.40
54666;BME280;40566;50.006;36.180;2023-02-18T00:55:42;99860.72;;;-3.90;57.39
54666;BME280;40566;50.006;36.180;2023-02-18T01:00:44;99843.91;;;-3.89;57.58
54666;BME280;40566;50.006;36.180;2023-02-18T01:05:45;99823.84;;;-3.85;57.59
54666;BME280;40566;50.006;36.180;2023-02-18T01:10:47;99818.75;;;-3.86;57.32
54666;BME280;40566;50.006;36.180;2023-02-18T01:15:48;99810.06;;;-3.94;57.58
54666;BME280;40566;50.006;36.180;2023-02-18T01:20:49;99798.66;;;-3.82;57.44
54666;BME280;40566;50.006;36.180;2023-02-18T01:25:50;99787.94;;;-3.74;57.45
54666;BME280;40566;50.006;36.180;2023-02-18T01:30:52;99782.50;;;-3.87;57.41
54666;BME280;40566;50.006;36.180;2023-02-18T01:35:53;99770.38;;;-3.97;57.76
54666;BME280;40566;50.006;36.180;2023-02-18T01:40:53;99780.31;;;-4.03;58.05
54666;BME280;40566;50.006;36.180;2023-02-18T01:56:16;99744.19;;;-4.01;57.67
54666;BME280;40566;50.006;36.180;2023-02-18T02:01:18;99749.50;;;-3.91;57.73
54666;BME280;40566;50.006;36.180;2023-02-18T02:06:21;99732.81;;;-3.86;57.75
54666;BME280;40566;50.006;36.180;2023-02-18T02:17:09;99707.38;;;-3.92;57.76
54666;BME280;40566;50.006;36.180;2023-02-18T02:28:04;99682.78;;;-3.98;57.89
54666;BME280;40566;50.006;36.180;2023-02-18T02:38:30;99696.19;;;-4.01;57.93
54666;BME280;40566;50.006;36.180;2023-02-18T02:49:36;99671.13;;;-3.94;57.76
54666;BME280;40566;50.006;36.180;2023-02-18T02:54:38;99663.34;;;-4.01;58.06
54666;BME280;40566;50.006;36.180;2023-02-18T02:59:42;99656.56;;;-4.02;58.21
54666;BME280;40566;50.006;36.180;2023-02-18T03:15:46;99632.50;;;-4.19;58.52
54666;BME280;40566;50.006;36.180;2023-02-18T03:26:08;99606.28;;;-4.23;58.78
54666;BME280;40566;50.006;36.180;2023-02-18T03:31:17;99599.84;;;-4.13;58.60
54666;BME280;40566;50.006;36.180;2023-02-18T03:36:21;99599.16;;;-4.07;58.64
54666;BME280;40566;50.006;36.180;2023-02-18T03:41:22;99583.22;;;-4.06;58.47
54666;BME280;40566;50.006;36.180;2023-02-18T03:46:23;99569.31;;;-4.21;58.96
54666;BME280;40566;50.006;36.180;2023-02-18T03:51:24;99564.97;;;-4.25;59.32
54666;BME280;40566;50.006;36.180;2023-02-18T03:56:24;99563.34;;;-4.24;59.26
54666;BME280;40566;50.006;36.180;2023-02-18T04:01:25;99551.06;;;-4.41;59.78
54666;BME280;40566;50.006;36.180;2023-02-18T04:06:26;99546.13;;;-4.38;59.88
54666;BME280;40566;50.006;36.180;2023-02-18T04:11:26;99529.44;;;-4.32;59.77
54666;BME280;40566;50.006;36.180;2023-02-18T04:16:27;99539.53;;;-4.32;59.65
54666;BME280;40566;50.006;36.180;2023-02-18T04:21:27;99533.84;;;-4.25;59.45
54666;BME280;40566;50.006;36.180;2023-02-18T04:26:28;99525.31;;;-4.29;59.73
54666;BME280;40566;50.006;36.180;2023-02-18T04:31:29;99507.63;;;-4.30;59.86
54666;BME280;40566;50.006;36.180;2023-02-18T04:36:29;99499.34;;;-4.25;60.03
54666;BME280;40566;50.006;36.180;2023-02-18T04:41:30;99487.75;;;-4.18;59.84
54666;BME280;40566;50.006;36.180;2023-02-18T04:46:31;99483.50;;;-4.19;59.86
54666;BME280;40566;50.006;36.180;2023-02-18T04:51:31;99481.84;;;-4.19;59.78
54666;BME280;40566;50.006;36.180;2023-02-18T04:56:32;99473.41;;;-4.19;59.88
54666;BME280;40566;50.006;36.180;2023-02-18T05:01:33;99488.31;;;-4.28;60.13
54666;BME280;40566;50.006;36.180;2023-02-18T05:06:33;99491.00;;;-4.22;60.26
54666;BME280;40566;50.006;36.180;2023-02-18T05:11:34;99460.94;;;-4.13;59.96
54666;BME280;40566;50.006;36.180;2023-02-18T05:16:35;99455.81;;;-4.16;60.13
54666;BME280;40566;50.006;36.180;2023-02-18T05:21:35;99441.66;;;-4.09;60.30
54666;BME280;40566;50.006;36.180;2023-02-18T05:26:36;99439.09;;;-4.11;60.23
54666;BME280;40566;50.006;36.180;2023-02-18T05:31:36;99432.41;;;-4.09;60.54
54666;BME280;40566;50.006;36.180;2023-02-18T05:36:37;99411.59;;;-4.00;60.63
54666;BME280;40566;50.006;36.180;2023-02-18T05:41:38;99406.72;;;-3.94;60.71
54666;BME280;40566;50.006;36.180;2023-02-18T05:46:38;99400.31;;;-3.80;60.40
54666;BME280;40566;50.006;36.180;2023-02-18T05:51:39;99383.56;;;-3.76;60.50
54666;BME280;40566;50.006;36.180;2023-02-18T05:56:40;99384.53;;;-3.71;60.65
54666;BME280;40566;50.006;36.180;2023-02-18T06:01:40;99361.84;;;-3.68;60.70
54666;BME280;40566;50.006;36.180;2023-02-18T06:06:41;99348.28;;;-3.71;61.08
54666;BME280;40566;50.006;36.180;2023-02-18T06:11:42;99338.13;;;-3.74;60.93
54666;BME280;40566;50.006;36.180;2023-02-18T06:16:43;99334.00;;;-3.71;61.05
54666;BME280;40566;50.006;36.180;2023-02-18T06:21:44;99324.06;;;-3.62;61.10
54666;BME280;40566;50.006;36.180;2023-02-18T06:26:44;99309.72;;;-3.63;61.24
54666;BME280;40566;50.006;36.180;2023-02-18T06:31:45;99287.19;;;-3.52;61.13
54666;BME280;40566;50.006;36.180;2023-02-18T06:36:45;99287.91;;;-3.58;61.38
54666;BME280;40566;50.006;36.180;2023-02-18T06:41:46;99267.88;;;-3.50;61.28
54666;BME280;40566;50.006;36.180;2023-02-18T06:46:46;99268.03;;;-3.42;61.45
54666;BME280;40566;50.006;36.180;2023-02-18T06:51:47;99256.09;;;-3.49;61.44
54666;BME280;40566;50.006;36.180;2023-02-18T06:56:48;99258.84;;;-3.39;61.51
54666;BME280;40566;50.006;36.180;2023-02-18T07:01:48;99246.22;;;-3.37;61.54
54666;BME280;40566;50.006;36.180;2023-02-18T07:06:49;99235.41;;;-3.30;61.62
54666;BME280;40566;50.006;36.180;2023-02-18T07:11:49;99222.28;;;-3.12;61.58
54666;BME280;40566;50.006;36.180;2023-02-18T07:16:50;99208.72;;;-3.15;61.82
54666;BME280;40566;50.006;36.180;2023-02-18T07:21:50;99187.66;;;-3.13;61.71
54666;BME280;40566;50.006;36.180;2023-02-18T07:26:53;99175.16;;;-3.05;61.87
54666;BME280;40566;50.006;36.180;2023-02-18T07:31:54;99148.28;;;-3.00;61.57
54666;BME280;40566;50.006;36.180;2023-02-18T07:36:54;99126.22;;;-3.07;62.04
54666;BME280;40566;50.006;36.180;2023-02-18T07:41:55;99113.84;;;-2.90;61.91
54666;BME280;40566;50.006;36.180;2023-02-18T07:46:56;99093.50;;;-2.96;62.04
54666;BME280;40566;50.006;36.180;2023-02-18T07:51:57;99092.84;;;-2.85;62.08
54666;BME280;40566;50.006;36.180;2023-02-18T07:56:57;99071.69;;;-2.90;62.32
54666;BME280;40566;50.006;36.180;2023-02-18T08:01:58;99065.06;;;-2.82;62.59
54666;BME280;40566;50.006;36.180;2023-02-18T08:06:58;99051.50;;;-2.85;62.78
54666;BME280;40566;50.006;36.180;2023-02-18T08:11:59;99031.44;;;-2.74;62.76
54666;BME280;40566;50.006;36.180;2023-02-18T08:17:00;99022.22;;;-2.68;62.74
54666;BME280;40566;50.006;36.180;2023-02-18T08:22:01;99012.09;;;-2.68;62.87
54666;BME280;40566;50.006;36.180;2023-02-18T08:27:02;99004.72;;;-2.51;62.84
54666;BME280;40566;50.006;36.180;2023-02-18T08:32:03;98985.09;;;-2.67;63.23
54666;BME280;40566;50.006;36.180;2023-02-18T08:37:03;98976.63;;;-2.72;63.80
54666;BME280;40566;50.006;36.180;2023-02-18T08:42:04;98965.69;;;-2.70;63.89
54666;BME280;40566;50.006;36.180;2023-02-18T08:47:05;98972.44;;;-2.67;64.07
54666;BME280;40566;50.006;36.180;2023-02-18T08:52:06;98944.69;;;-2.60;64.16
54666;BME280;40566;50.006;36.180;2023-02-18T08:57:06;98933.00;;;-2.50;64.02
54666;BME280;40566;50.006;36.180;2023-02-18T09:02:08;98914.53;;;-2.43;64.06
54666;BME280;40566;50.006;36.180;2023-02-18T09:07:09;98894.22;;;-2.49;64.18
54666;BME280;40566;50.006;36.180;2023-02-18T09:12:09;98889.13;;;-2.50;64.55
54666;BME280;40566;50.006;36.180;2023-02-18T09:17:10;98867.19;;;-2.50;64.55
54666;BME280;40566;50.006;36.180;2023-02-18T09:22:11;98861.41;;;-2.36;64.50
54666;BME280;40566;50.006;36.180;2023-02-18T09:27:11;98852.22;;;-2.25;64.63
54666;BME280;40566;50.006;36.180;2023-02-18T09:32:12;98829.44;;;-2.24;64.86
54666;BME280;40566;50.006;36.180;2023-02-18T09:37:13;98805.06;;;-2.12;64.79
54666;BME280;40566;50.006;36.180;2023-02-18T09:42:17;98780.59;;;-2.09;64.76
54666;BME280;40566;50.006;36.180;2023-02-18T09:47:35;98772.19;;;-2.03;65.22
54666;BME280;40566;50.006;36.180;2023-02-18T09:52:37;98760.50;;;-1.83;65.09
54666;BME280;40566;50.006;36.180;2023-02-18T09:57:43;98736.88;;;-1.77;64.99
54666;BME280;40566;50.006;36.180;2023-02-18T10:03:12;98716.50;;;-1.88;65.33
54666;BME280;40566;50.006;36.180;2023-02-18T10:08:37;98694.56;;;-1.87;65.40
54666;BME280;40566;50.006;36.180;2023-02-18T10:13:40;98681.91;;;-1.87;65.80
54666;BME280;40566;50.006;36.180;2023-02-18T10:18:42;98670.88;;;-1.95;66.17
54666;BME280;40566;50.006;36.180;2023-02-18T10:24:00;98654.84;;;-1.93;66.33
54666;BME280;40566;50.006;36.180;2023-02-18T10:29:03;98634.50;;;-2.07;66.78
54666;BME280;40566;50.006;36.180;2023-02-18T10:34:19;98621.00;;;-2.00;66.81
54666;BME280;40566;50.006;36.180;2023-02-18T10:50:12;98586.41;;;-1.94;67.04
54666;BME280;40566;50.006;36.180;2023-02-18T10:55:34;98585.59;;;-1.93;67.11
54666;BME280;40566;50.006;36.180;2023-02-18T11:00:38;98571.25;;;-1.82;67.42
54666;BME280;40566;50.006;36.180;2023-02-18T11:05:40;98556.06;;;-1.74;67.34
54666;BME280;40566;50.006;36.180;2023-02-18T11:10:42;98532.44;;;-1.55;67.21
54666;BME280;40566;50.006;36.180;2023-02-18T11:16:00;98517.22;;;-1.41;66.88
54666;BME280;40566;50.006;36.180;2023-02-18T11:21:04;98501.16;;;-1.31;66.96
54666;BME280;40566;50.006;36.180;2023-02-18T11:26:10;98502.84;;;-1.27;67.30
54666;BME280;40566;50.006;36.180;2023-02-18T11:31:23;98500.31;;;-1.22;67.47
54666;BME280;40566;50.006;36.180;2023-02-18T11:36:28;98475.78;;;-1.31;67.90
54666;BME280;40566;50.006;36.180;2023-02-18T11:41:37;98469.91;;;-1.28;67.73
54666;BME280;40566;50.006;36.180;2023-02-18T11:46:55;98461.44;;;-1.27;67.90
54666;BME280;40566;50.006;36.180;2023-02-18T11:52:27;98455.50;;;-1.31;68.26
54666;BME280;40566;50.006;36.180;2023-02-18T11:57:28;98436.03;;;-1.10;68.08
54666;BME280;40566;50.006;36.180;2023-02-18T12:02:35;98431.78;;;-1.04;68.29
54666;BME280;40566;50.006;36.180;2023-02-18T12:07:44;98435.13;;;-0.97;68.38
54666;BME280;40566;50.006;36.180;2023-02-18T13:04:53;98337.56;;;-0.41;69.47
54666;BME280;40566;50.006;36.180;2023-02-18T13:15:35;98338.28;;;-0.23;69.52
54666;BME280;40566;50.006;36.180;2023-02-18T13:20:42;98327.25;;;-0.19;69.72
54666;BME280;40566;50.006;36.180;2023-02-18T13:25:45;98322.19;;;-0.22;70.10
54666;BME280;40566;50.006;36.180;2023-02-18T13:31:21;98303.66;;;-0.33;70.31
54666;BME280;40566;50.006;36.180;2023-02-18T13:36:53;98309.63;;;-0.41;70.40
54666;BME280;40566;50.006;36.180;2023-02-18T13:47:43;98300.25;;;-0.31;70.67
54666;BME280;40566;50.006;36.180;2023-02-18T13:52:44;98298.47;;;-0.19;70.70
54666;BME280;40566;50.006;36.180;2023-02-18T13:57:46;98290.84;;;-0.19;71.02
54666;BME280;40566;50.006;36.180;2023-02-18T14:03:18;98277.25;;;-0.17;71.03
54666;BME280;40566;50.006;36.180;2023-02-18T14:08:35;98286.53;;;-0.13;71.13
54666;BME280;40566;50.006;36.180;2023-02-18T14:13:48;98272.94;;;-0.09;71.22
54666;BME280;40566;50.006;36.180;2023-02-18T14:18:57;98277.06;;;0.05;71.29
54666;BME280;40566;50.006;36.180;2023-02-18T14:24:00;98266.97;;;-0.02;71.55
54666;BME280;40566;50.006;36.180;2023-02-18T14:29:30;98262.78;;;-0.10;71.81
54666;BME280;40566;50.006;36.180;2023-02-18T14:35:26;98254.28;;;-0.05;71.96
54666;BME280;40566;50.006;36.180;2023-02-18T14:40:24;98256.75;;;0.03;72.02
54666;BME280;40566;50.006;36.180;2023-02-18T14:45:54;98239.75;;;0.08;72.11
54666;BME280;40566;50.006;36.180;2023-02-18T14:50:49;98234.59;;;0.16;71.96
54666;BME280;40566;50.006;36.180;2023-02-18T14:56:02;98240.53;;;0.16;72.25
54666;BME280;40566;50.006;36.180;2023-02-18T15:01:06;98224.47;;;0.10;72.57
54666;BME280;40566;50.006;36.180;2023-02-18T15:06:32;98217.78;;;0.03;72.58
54666;BME280;40566;50.006;36.180;2023-02-18T15:11:41;98207.56;;;0.06;72.78
54666;BME280;40566;50.006;36.180;2023-02-18T15:16:44;98219.44;;;0.04;73.03
54666;BME280;40566;50.006;36.180;2023-02-18T15:21:49;98207.63;;;0.01;73.22
54666;BME280;40566;50.006;36.180;2023-02-18T15:26:53;98202.56;;;-0.02;73.47
54666;BME280;40566;50.006;36.180;2023-02-18T15:31:56;98209.28;;;0.04;73.57
54666;BME280;40566;50.006;36.180;2023-02-18T15:37:01;98210.91;;;0.11;73.60
54666;BME280;40566;50.006;36.180;2023-02-18T15:47:27;98212.56;;;0.15;74.03
54666;BME280;40566;50.006;36.180;2023-02-18T15:52:31;98214.22;;;0.19;73.96
54666;BME280;40566;50.006;36.180;2023-02-18T15:57:35;98213.31;;;0.23;73.95
54666;BME280;40566;50.006;36.180;2023-02-18T16:02:50;98217.50;;;0.27;74.02
54666;BME280;40566;50.006;36.180;2023-02-18T16:07:57;98222.50;;;0.36;74.11
54666;BME280;40566;50.006;36.180;2023-02-18T16:12:59;98217.34;;;0.43;74.29
54666;BME280;40566;50.006;36.180;2023-02-18T16:18:00;98217.25;;;0.49;74.27
54666;BME280;40566;50.006;36.180;2023-02-18T16:23:13;98213.78;;;0.57;74.33
54666;BME280;40566;50.006;36.180;2023-02-18T16:28:16;98216.19;;;0.68;74.36
54666;BME280;40566;50.006;36.180;2023-02-18T16:33:21;98212.69;;;0.75;74.29
54666;BME280;40566;50.006;36.180;2023-02-18T16:38:23;98216.88;;;0.81;74.61
54666;BME280;40566;50.006;36.180;2023-02-18T16:43:25;98205.81;;;0.84;74.93
54666;BME280;40566;50.006;36.180;2023-02-18T16:48:31;98223.47;;;0.94;74.85
54666;BME280;40566;50.006;36.180;2023-02-18T16:53:33;98219.97;;;1.03;75.06
54666;BME280;40566;50.006;36.180;2023-02-18T16:58:33;98217.31;;;1.09;75.07
54666;BME280;40566;50.006;36.180;2023-02-18T17:03:34;98219.75;;;1.17;75.11
54666;BME280;40566;50.006;36.180;2023-02-18T17:08:34;98224.75;;;1.23;75.30
54666;BME280;40566;50.006;36.180;2023-02-18T17:13:35;98226.31;;;1.32;75.37
54666;BME280;40566;50.006;36.180;2023-02-18T17:18:36;98225.38;;;1.37;75.39
54666;BME280;40566;50.006;36.180;2023-02-18T17:23:37;98226.19;;;1.41;75.68
54666;BME280;40566;50.006;36.180;2023-02-18T17:28:38;98222.69;;;1.48;75.91
54666;BME280;40566;50.006;36.180;2023-02-18T17:33:38;98217.50;;;1.54;76.01
54666;BME280;40566;50.006;36.180;2023-02-18T17:38:39;98224.94;;;1.65;76.08
54666;BME280;40566;50.006;36.180;2023-02-18T17:43:40;98224.84;;;1.70;76.20
54666;BME280;40566;50.006;36.180;2023-02-18T17:48:42;98223.09;;;1.73;76.32
54666;BME280;40566;50.006;36.180;2023-02-18T17:53:43;98228.16;;;1.76;76.51
54666;BME280;40566;50.006;36.180;2023-02-18T17:58:44;98222.19;;;1.77;76.69
54666;BME280;40566;50.006;36.180;2023-02-18T18:03:45;98226.44;;;1.77;76.81
54666;BME280;40566;50.006;36.180;2023-02-18T18:08:47;98219.63;;;1.77;77.05
54666;BME280;40566;50.006;36.180;2023-02-18T18:13:48;98231.47;;;1.82;77.20
54666;BME280;40566;50.006;36.180;2023-02-18T18:18:49;98225.50;;;1.84;77.24
54666;BME280;40566;50.006;36.180;2023-02-18T18:23:50;98234.81;;;1.85;77.30
54666;BME280;40566;50.006;36.180;2023-02-18T18:28:50;98230.56;;;1.86;77.54
54666;BME280;40566;50.006;36.180;2023-02-18T18:33:52;98230.47;;;1.90;77.55
54666;BME280;40566;50.006;36.180;2023-02-18T18:38:53;98229.56;;;1.93;77.52
54666;BME280;40566;50.006;36.180;2023-02-18T18:43:53;98221.91;;;1.93;77.73
54666;BME280;40566;50.006;36.180;2023-02-18T18:48:54;98216.00;;;1.92;77.90
54666;BME280;40566;50.006;36.180;2023-02-18T18:53:55;98223.69;;;1.89;77.92
54666;BME280;40566;50.006;36.180;2023-02-18T18:58:55;98226.22;;;1.89;78.15
54666;BME280;40566;50.006;36.180;2023-02-18T19:03:56;98222.84;;;1.89;78.19
54666;BME280;40566;50.006;36.180;2023-02-18T19:08:56;98227.97;;;1.87;78.30
54666;BME280;40566;50.006;36.180;2023-02-18T19:13:57;98222.88;;;1.87;78.43
54666;BME280;40566;50.006;36.180;2023-02-18T19:18:58;98214.41;;;1.85;78.48
54666;BME280;40566;50.006;36.180;2023-02-18T19:23:58;98229.69;;;1.87;78.62
54666;BME280;40566;50.006;36.180;2023-02-18T19:28:59;98227.03;;;1.91;78.63
54666;BME280;40566;50.006;36.180;2023-02-18T19:34:00;98230.47;;;1.92;78.63
54666;BME280;40566;50.006;36.180;2023-02-18T19:39:00;98228.75;;;1.92;78.70
54666;BME280;40566;50.006;36.180;2023-02-18T19:44:01;98226.13;;;1.95;78.65
54666;BME280;40566;50.006;36.180;2023-02-18T19:49:02;98227.00;;;1.94;78.75
54666;BME280;40566;50.006;36.180;2023-02-18T19:54:02;98230.31;;;2.00;78.70
54666;BME280;40566;50.006;36.180;2023-02-18T19:59:03;98237.09;;;1.99;78.91
54666;BME280;40566;50.006;36.180;2023-02-18T20:04:03;98232.00;;;2.01;78.76
54666;BME280;40566;50.006;36.180;2023-02-18T20:09:04;98232.06;;;1.97;78.80
54666;BME280;40566;50.006;36.180;2023-02-18T20:14:05;98232.00;;;1.99;78.89
54666;BME280;40566;50.006;36.180;2023-02-18T20:19:05;98235.44;;;2.00;78.96
54666;BME280;40566;50.006;36.180;2023-02-18T20:24:06;98220.16;;;1.98;78.93
54666;BME280;40566;50.006;36.180;2023-02-18T20:29:07;98226.97;;;1.97;79.09
54666;BME280;40566;50.006;36.180;2023-02-18T20:34:08;98226.97;;;1.97;79.26
54666;BME280;40566;50.006;36.180;2023-02-18T20:39:10;98219.31;;;1.97;79.23
54666;BME280;40566;50.006;36.180;2023-02-18T20:44:12;98225.31;;;1.93;79.40
54666;BME280;40566;50.006;36.180;2023-02-18T20:49:16;98208.38;;;1.89;79.49
54666;BME280;40566;50.006;36.180;2023-02-18T20:54:18;98225.31;;;1.93;79.46
54666;BME280;40566;50.006;36.180;2023-02-18T20:59:19;98238.00;;;1.96;79.48
54666;BME280;40566;50.006;36.180;2023-02-18T21:04:20;98233.72;;;1.98;79.34
54666;BME280;40566;50.006;36.180;2023-02-18T21:09:22;98228.50;;;2.05;79.17
54666;BME280;40566;50.006;36.180;2023-02-18T21:14:23;98231.88;;;2.07;79.16
54666;BME280;40566;50.006;36.180;2023-02-18T21:19:24;98242.06;;;2.08;79.20
54666;BME280;40566;50.006;36.180;2023-02-18T21:24:24;98257.34;;;2.08;79.31
54666;BME280;40566;50.006;36.180;2023-02-18T21:29:25;98253.03;;;2.13;79.08
54666;BME280;40566;50.006;36.180;2023-02-18T21:34:26;98252.16;;;2.14;79.23
54666;BME280;40566;50.006;36.180;2023-02-18T21:39:26;98250.44;;;2.15;79.20
54666;BME280;40566;50.006;36.180;2023-02-18T21:44:27;98250.47;;;2.13;79.30
54666;BME280;40566;50.006;36.180;2023-02-18T21:49:27;98255.59;;;2.13;79.30
54666;BME280;40566;50.006;36.180;2023-02-18T21:59:33;98264.88;;;2.16;79.13
54666;BME280;40566;50.006;36.180;2023-02-18T22:04:35;98260.69;;;2.13;79.29
54666;BME280;40566;50.006;36.180;2023-02-18T22:09:37;98272.56;;;2.13;79.32
54666;BME280;40566;50.006;36.180;2023-02-18T22:14:38;98270.88;;;2.13;79.35
54666;BME280;40566;50.006;36.180;2023-02-18T22:19:39;98271.72;;;2.14;79.28
54666;BME280;40566;50.006;36.180;2023-02-18T22:24:39;98273.38;;;2.15;79.21
54666;BME280;40566;50.006;36.180;2023-02-18T22:29:40;98274.28;;;2.14;79.38
54666;BME280;40566;50.006;36.180;2023-02-18T22:34:40;98270.91;;;2.12;79.31
54666;BME280;40566;50.006;36.180;2023-02-18T22:39:41;98263.28;;;2.09;79.24
54666;BME280;40566;50.006;36.180;2023-02-18T22:44:42;98270.09;;;2.10;79.37
54666;BME280;40566;50.006;36.180;2023-02-18T22:49:42;98270.13;;;2.08;79.50
54666;BME280;40566;50.006;36.180;2023-02-18T22:54:43;98270.13;;;2.07;79.46
54666;BME280;40566;50.006;36.180;2023-02-18T22:59:44;98277.84;;;2.04;79.39
54666;BME280;40566;50.006;36.180;2023-02-18T23:04:44;98288.91;;;2.03;79.44
54666;BME280;40566;50.006;36.180;2023-02-18T23:09:45;98283.78;;;2.04;79.28
54666;BME280;40566;50.006;36.180;2023-02-18T23:14:46;98284.59;;;2.06;79.24
54666;BME280;40566;50.006;36.180;2023-02-18T23:19:48;98281.16;;;2.09;79.31
54666;BME280;40566;50.006;36.180;2023-02-18T23:24:49;98293.88;;;2.10;79.30
54666;BME280;40566;50.006;36.180;2023-02-18T23:29:50;98287.09;;;2.09;79.33
54666;BME280;40566;50.006;36.180;2023-02-18T23:34:51;98291.34;;;2.09;79.30
54666;BME280;40566;50.006;36.180;2023-02-18T23:39:53;98299.00;;;2.09;79.36
54666;BME280;40566;50.006;36.180;2023-02-18T23:44:54;98296.44;;;2.09;79.39
54666;BME280;40566;50.006;36.180;2023-02-18T23:49:55;98291.34;;;2.09;79.25
54666;BME280;40566;50.006;36.180;2023-02-18T23:54:56;98295.72;;;2.02;79.44
54666;BME280;40566;50.006;36.180;2023-02-18T23:59:56;98291.47;;;2.01;79.67
